createdAt,value
2022-12-25T00:01:22.870Z,100884.56
2022-12-25T00:03:50.594Z,100897.66
2022-12-25T00:06:17.976Z,100895.66
2022-12-25T00:08:44.570Z,100894.38
2022-12-25T00:11:13.856Z,100901.13
2022-12-25T00:13:40.948Z,100902.66
2022-12-25T00:16:26.933Z,100903.41
2022-12-25T00:18:54.339Z,100898.81
2022-12-25T00:21:22.208Z,100905.13
2022-12-25T00:23:56.588Z,100903.84
2022-12-25T00:26:23.321Z,100906.41
2022-12-25T00:28:54.819Z,100911.44
2022-12-25T00:31:22.562Z,100913.72
2022-12-25T00:33:51.127Z,100904.22
2022-12-25T00:36:20.040Z,100901.44
2022-12-25T00:38:46.773Z,100908.06
2022-12-25T00:41:16.464Z,100911.78
2022-12-25T00:43:42.958Z,100908.94
2022-12-25T00:46:12.034Z,100905.47
2022-12-25T00:48:39.255Z,100909.75
2022-12-25T00:51:08.373Z,100899.63
2022-12-25T00:53:35.092Z,100898.81
2022-12-25T00:56:07.331Z,100902.53
2022-12-25T00:58:35.456Z,100894.53
2022-12-25T01:01:27.002Z,100902.22
2022-12-25T01:03:53.667Z,100912.53
2022-12-25T01:06:20.236Z,100914.09
2022-12-25T01:09:05.443Z,100920.16
2022-12-25T01:11:32.350Z,100913.09
2022-12-25T01:13:59.344Z,100912.53
2022-12-25T01:16:26.130Z,100911.66
2022-12-25T01:18:52.708Z,100915.13
2022-12-25T01:21:21.239Z,100912.84
2022-12-25T01:23:50.517Z,100905.50
2022-12-25T01:26:17.905Z,100891.28
2022-12-25T01:28:45.044Z,100888.63
2022-12-25T01:31:14.004Z,100903.00
2022-12-25T01:33:42.598Z,100916.09
2022-12-25T01:36:21.700Z,100911.00
2022-12-25T01:38:49.253Z,100912.53
2022-12-25T01:41:18.577Z,100913.81
2022-12-25T01:44:12.355Z,100916.69
2022-12-25T01:46:38.918Z,100914.06
2022-12-25T01:49:07.822Z,100914.06
2022-12-25T01:52:00.705Z,100916.34
2022-12-25T01:54:33.228Z,100909.59
2022-12-25T01:57:02.480Z,100897.66
2022-12-25T01:59:30.175Z,100903.00
2022-12-25T02:01:57.569Z,100896.69
2022-12-25T02:04:38.845Z,100895.25
2022-12-25T02:07:17.411Z,100889.47
2022-12-25T02:09:44.840Z,100903.19
2022-12-25T02:12:19.811Z,100897.84
2022-12-25T02:14:49.885Z,100909.34
2022-12-25T02:17:48.642Z,100912.84
2022-12-25T02:20:39.820Z,100908.41
2022-12-25T02:23:22.462Z,100899.28
2022-12-25T02:26:04.343Z,100891.75
2022-12-25T02:28:45.379Z,100890.84
2022-12-25T02:31:51.780Z,100900.59
2022-12-25T02:34:32.790Z,100898.06
2022-12-25T02:37:02.228Z,100903.81
2022-12-25T02:40:00.071Z,100894.41
2022-12-25T02:43:18.970Z,100890.66
2022-12-25T02:46:14.403Z,100887.19
2022-12-25T02:49:11.890Z,100900.09
2022-12-25T02:52:18.178Z,100897.72
2022-12-25T02:55:10.053Z,100895.97
2022-12-25T02:58:06.697Z,100890.66
2022-12-25T03:00:57.678Z,100901.03
2022-12-25T03:03:48.211Z,100891.63
2022-12-25T03:06:34.620Z,100892.34
2022-12-25T03:09:22.996Z,100903.75
2022-12-25T03:11:56.667Z,100897.91
2022-12-25T03:14:41.921Z,100897.22
2022-12-25T03:17:08.946Z,100896.28
2022-12-25T03:19:54.455Z,100896.50
2022-12-25T03:22:48.967Z,100887.81
2022-12-25T03:25:35.328Z,100901.94
2022-12-25T03:28:02.810Z,100890.81
2022-12-25T03:31:11.421Z,100895.22
2022-12-25T03:34:34.585Z,100879.28
2022-12-25T03:37:38.763Z,100888.53
2022-12-25T03:41:13.465Z,100895.53
2022-12-25T03:44:23.270Z,100887.22
2022-12-25T03:47:19.687Z,100885.56
2022-12-25T03:50:26.137Z,100879.91
2022-12-25T03:53:13.179Z,100877.25
2022-12-25T03:55:59.587Z,100877.44
2022-12-25T03:58:46.470Z,100875.81
2022-12-25T04:01:32.078Z,100868.63
2022-12-25T04:04:17.949Z,100861.47
2022-12-25T04:07:03.702Z,100866.28
2022-12-25T04:09:48.968Z,100862.22
2022-12-25T04:12:50.547Z,100862.13
2022-12-25T04:15:35.917Z,100843.09
2022-12-25T04:18:22.126Z,100843.50
2022-12-25T04:21:07.306Z,100836.47
2022-12-25T04:23:52.770Z,100834.81
2022-12-25T04:26:38.596Z,100835.91
2022-12-25T04:29:23.677Z,100844.56
2022-12-25T04:32:08.923Z,100836.09
2022-12-25T04:34:54.406Z,100827.50
2022-12-25T04:37:21.399Z,100825.91
2022-12-25T04:39:48.276Z,100822.94
2022-12-25T04:42:16.289Z,100819.66
2022-12-25T04:44:42.990Z,100825.00
2022-12-25T04:47:11.652Z,100816.38
2022-12-25T04:49:39.346Z,100835.38
2022-12-25T04:52:06.095Z,100837.13
2022-12-25T04:54:32.921Z,100837.78
2022-12-25T04:56:59.819Z,100835.28
2022-12-25T04:59:26.569Z,100803.16
2022-12-25T05:01:53.842Z,100832.13
2022-12-25T05:04:20.639Z,100821.00
2022-12-25T05:06:47.439Z,100818.13
2022-12-25T05:09:14.404Z,100820.13
2022-12-25T05:11:57.852Z,100797.09
2022-12-25T05:14:24.665Z,100819.75
2022-12-25T05:16:51.426Z,100842.28
2022-12-25T05:19:18.189Z,100846.94
2022-12-25T05:21:44.831Z,100853.66
2022-12-25T05:24:11.469Z,100836.16
2022-12-25T05:26:38.253Z,100837.97
2022-12-25T05:29:05.165Z,100827.69
2022-12-25T05:31:31.936Z,100832.00
2022-12-25T05:33:58.621Z,100823.59
2022-12-25T05:36:25.179Z,100832.53
2022-12-25T05:39:16.788Z,100830.78
2022-12-25T05:41:43.404Z,100829.78
2022-12-25T05:44:10.237Z,100817.91
2022-12-25T05:46:36.797Z,100828.28
2022-12-25T05:49:05.580Z,100827.41
2022-12-25T05:51:44.566Z,100820.25
2022-12-25T05:54:11.157Z,100817.03
2022-12-25T05:56:38.438Z,100821.31
2022-12-25T05:59:04.957Z,100828.25
2022-12-25T06:01:31.680Z,100819.53
2022-12-25T06:03:58.417Z,100818.59
2022-12-25T06:07:15.652Z,100809.13
2022-12-25T06:09:42.224Z,100813.31
2022-12-25T06:12:09.432Z,100803.91
2022-12-25T06:14:36.673Z,100808.34
2022-12-25T06:17:03.387Z,100802.44
2022-12-25T06:19:30.077Z,100798.84
2022-12-25T06:21:56.697Z,100793.41
2022-12-25T06:24:23.548Z,100787.56
2022-12-25T06:27:15.573Z,100786.88
2022-12-25T06:29:42.255Z,100798.13
2022-12-25T06:32:08.892Z,100792.59
2022-12-25T06:34:35.557Z,100789.44
2022-12-25T06:37:02.157Z,100789.72
2022-12-25T06:39:28.778Z,100788.59
2022-12-25T06:41:55.778Z,100789.72
2022-12-25T06:44:22.345Z,100787.69
2022-12-25T06:46:48.959Z,100773.88
2022-12-25T06:49:15.583Z,100777.44
2022-12-25T06:51:42.130Z,100771.38
2022-12-25T06:54:08.875Z,100763.84
2022-12-25T06:56:35.464Z,100764.66
2022-12-25T06:59:05.232Z,100760.38
2022-12-25T07:01:55.775Z,100763.31
2022-12-25T07:04:35.648Z,100768.63
2022-12-25T07:07:08.391Z,100764.59
2022-12-25T07:09:35.891Z,100758.59
2022-12-25T07:12:05.155Z,100759.59
2022-12-25T07:14:32.283Z,100749.19
2022-12-25T07:16:58.911Z,100753.56
2022-12-25T07:19:25.569Z,100737.94
2022-12-25T07:21:52.118Z,100725.69
2022-12-25T07:24:22.652Z,100728.38
2022-12-25T07:26:50.719Z,100732.69
2022-12-25T07:29:19.525Z,100741.56
2022-12-25T07:31:46.842Z,100752.47
2022-12-25T07:34:13.395Z,100754.22
2022-12-25T07:36:39.944Z,100766.88
2022-12-25T07:39:06.491Z,100757.69
2022-12-25T07:41:33.039Z,100744.88
2022-12-25T07:44:13.425Z,100742.84
2022-12-25T07:46:39.964Z,100724.00
2022-12-25T07:49:06.685Z,100729.16
2022-12-25T07:51:33.635Z,100731.16
2022-12-25T07:54:00.194Z,100726.16
2022-12-25T07:56:26.824Z,100721.03
2022-12-25T07:58:53.379Z,100722.06
2022-12-25T08:01:23.563Z,100708.94
2022-12-25T08:04:05.124Z,100711.53
2022-12-25T08:06:37.711Z,100712.59
2022-12-25T08:09:07.742Z,100726.28
2022-12-25T08:11:34.411Z,100740.31
2022-12-25T08:14:01.190Z,100750.69
2022-12-25T08:16:52.710Z,100742.81
2022-12-25T08:19:19.486Z,100739.09
2022-12-25T08:21:46.058Z,100737.72
2022-12-25T08:24:12.654Z,100746.38
2022-12-25T08:26:39.206Z,100746.41
2022-12-25T08:29:06.247Z,100751.78
2022-12-25T08:31:36.397Z,100749.75
2022-12-25T08:34:09.275Z,100749.16
2022-12-25T08:36:36.380Z,100732.88
2022-12-25T08:39:03.938Z,100727.91
2022-12-25T08:41:31.347Z,100709.63
2022-12-25T08:43:58.659Z,100702.31
2022-12-25T08:46:25.456Z,100698.97
2022-12-25T08:48:52.190Z,100698.31
2022-12-25T08:51:21.754Z,100709.88
2022-12-25T08:53:49.101Z,100726.09
2022-12-25T08:56:15.945Z,100731.69
2022-12-25T08:58:43.164Z,100724.47
2022-12-25T09:01:10.741Z,100734.19
2022-12-25T09:03:37.818Z,100733.47
2022-12-25T09:06:09.856Z,100733.50
2022-12-25T09:08:39.879Z,100711.97
2022-12-25T09:11:13.816Z,100723.03
2022-12-25T09:13:40.967Z,100730.97
2022-12-25T09:16:13.794Z,100721.53
2022-12-25T09:18:44.704Z,100718.13
2022-12-25T09:21:13.274Z,100721.47
2022-12-25T09:23:40.232Z,100722.38
2022-12-25T09:26:11.031Z,100711.03
2022-12-25T09:28:37.797Z,100719.84
2022-12-25T09:31:04.569Z,100706.66
2022-12-25T09:33:31.162Z,100691.13
2022-12-25T09:36:03.234Z,100685.81
2022-12-25T09:38:30.276Z,100686.19
2022-12-25T09:41:21.503Z,100676.91
2022-12-25T09:43:53.420Z,100674.31
2022-12-25T09:46:24.942Z,100669.47
2022-12-25T09:49:07.484Z,100664.31
2022-12-25T09:51:37.570Z,100665.19
2022-12-25T09:54:12.490Z,100659.06
2022-12-25T09:56:39.069Z,100661.50
2022-12-25T09:59:17.244Z,100665.19
2022-12-25T10:02:11.901Z,100678.31
2022-12-25T10:04:53.937Z,100681.09
2022-12-25T10:07:58.496Z,100681.91
2022-12-25T10:10:50.110Z,100690.53
2022-12-25T10:14:13.815Z,100686.44
2022-12-25T10:16:51.446Z,100693.22
2022-12-25T10:19:23.233Z,100686.41
2022-12-25T10:21:55.187Z,100675.88
2022-12-25T10:24:41.088Z,100676.78
2022-12-25T10:27:19.510Z,100674.28
2022-12-25T10:29:53.457Z,100687.19
2022-12-25T10:32:20.164Z,100681.00
2022-12-25T10:34:46.964Z,100686.50
2022-12-25T10:37:14.107Z,100684.78
2022-12-25T10:39:46.412Z,100683.53
2022-12-25T10:42:24.398Z,100696.78
2022-12-25T10:45:02.855Z,100691.63
2022-12-25T10:47:33.064Z,100686.38
2022-12-25T10:50:01.331Z,100666.31
2022-12-25T10:52:28.896Z,100668.19
2022-12-25T10:54:56.094Z,100644.56
2022-12-25T10:57:47.429Z,100639.59
2022-12-25T11:00:29.170Z,100619.75
2022-12-25T11:02:57.793Z,100645.84
2022-12-25T11:05:36.377Z,100630.81
2022-12-25T11:08:03.971Z,100628.47
2022-12-25T11:10:56.825Z,100636.28
2022-12-25T11:13:29.229Z,100647.47
2022-12-25T11:16:35.446Z,100651.94
2022-12-25T11:19:02.818Z,100641.59
2022-12-25T11:21:32.204Z,100638.78
2022-12-25T11:24:18.727Z,100626.88
2022-12-25T11:26:54.262Z,100625.81
2022-12-25T11:29:35.110Z,100606.78
2022-12-25T11:32:04.195Z,100606.00
2022-12-25T11:34:38.637Z,100598.28
2022-12-25T11:37:14.558Z,100598.16
2022-12-25T11:39:41.945Z,100592.25
2022-12-25T11:42:20.483Z,100592.41
2022-12-25T11:45:02.471Z,100582.69
2022-12-25T11:47:54.432Z,100573.25
2022-12-25T11:50:48.211Z,100570.59
2022-12-25T11:53:23.669Z,100561.13
2022-12-25T11:55:57.133Z,100553.22
2022-12-25T11:58:33.423Z,100538.38
2022-12-25T12:01:04.658Z,100534.22
2022-12-25T12:03:35.929Z,100532.63
2022-12-25T12:06:16.393Z,100529.06
2022-12-25T12:08:43.899Z,100524.63
2022-12-25T12:11:27.982Z,100508.19
2022-12-25T12:14:01.598Z,100511.81
2022-12-25T12:16:29.415Z,100503.22
2022-12-25T12:18:56.014Z,100506.66
2022-12-25T12:21:25.890Z,100498.84
2022-12-25T12:24:04.196Z,100499.00
2022-12-25T12:26:36.883Z,100492.97
2022-12-25T12:29:06.023Z,100487.66
2022-12-25T12:31:45.427Z,100489.53
2022-12-25T12:34:56.428Z,100485.16
2022-12-25T12:37:36.390Z,100478.25
2022-12-25T12:40:05.932Z,100470.50
2022-12-25T12:42:40.151Z,100468.66
2022-12-25T12:45:15.842Z,100473.97
2022-12-25T12:47:46.580Z,100466.28
2022-12-25T12:50:42.975Z,100460.22
2022-12-25T12:53:26.897Z,100453.22
2022-12-25T12:55:53.564Z,100440.00
2022-12-25T12:58:39.596Z,100421.81
2022-12-25T13:04:48.523Z,100413.09
2022-12-25T13:07:33.785Z,100401.88
2022-12-25T13:10:03.681Z,100402.00
2022-12-25T13:12:30.377Z,100397.50
2022-12-25T13:15:04.036Z,100391.50
2022-12-25T13:17:30.823Z,100392.47
2022-12-25T13:19:59.527Z,100387.28
2022-12-25T13:22:32.640Z,100388.16
2022-12-25T13:25:01.798Z,100387.19
2022-12-25T13:27:31.155Z,100388.16
2022-12-25T13:29:58.995Z,100388.09
2022-12-25T13:32:30.696Z,100385.50
2022-12-25T13:35:12.769Z,100389.03
2022-12-25T13:37:39.466Z,100378.63
2022-12-25T13:40:14.274Z,100378.75
2022-12-25T13:42:46.360Z,100376.97
2022-12-25T13:45:12.885Z,100376.97
2022-12-25T13:48:15.630Z,100375.28
2022-12-25T13:50:59.571Z,100361.44
2022-12-25T13:53:27.114Z,100352.75
2022-12-25T13:55:55.839Z,100356.22
2022-12-25T13:58:30.606Z,100344.97
2022-12-25T14:01:00.073Z,100337.16
2022-12-25T14:03:39.952Z,100350.22
2022-12-25T14:06:20.328Z,100349.28
2022-12-25T14:08:47.997Z,100351.88
2022-12-25T14:11:16.819Z,100342.44
2022-12-25T14:13:45.991Z,100344.13
2022-12-25T14:16:16.984Z,100345.81
2022-12-25T14:18:56.697Z,100349.41
2022-12-25T14:21:41.467Z,100342.53
2022-12-25T14:24:15.189Z,100340.72
2022-12-25T14:26:42.779Z,100328.50
2022-12-25T14:29:18.197Z,100329.38
2022-12-25T14:31:47.583Z,100331.97
2022-12-25T14:34:28.313Z,100326.97
2022-12-25T14:37:01.393Z,100335.63
2022-12-25T14:39:35.033Z,100326.06
2022-12-25T14:42:21.855Z,100320.91
2022-12-25T14:45:30.748Z,100318.28
2022-12-25T14:48:33.309Z,100320.00
2022-12-25T14:51:10.331Z,100313.81
2022-12-25T14:53:48.537Z,100313.88
2022-12-25T14:56:39.113Z,100315.19
2022-12-25T14:59:09.535Z,100290.25
2022-12-25T15:01:37.657Z,100312.91
2022-12-25T15:04:11.343Z,100315.50
2022-12-25T15:06:52.701Z,100304.22
2022-12-25T15:09:19.373Z,100304.09
2022-12-25T15:11:50.873Z,100305.16
2022-12-25T15:14:17.639Z,100307.75
2022-12-25T15:16:51.110Z,100302.56
2022-12-25T15:19:26.557Z,100306.94
2022-12-25T15:22:01.441Z,100294.59
2022-12-25T15:24:28.225Z,100307.78
2022-12-25T15:26:55.373Z,100299.19
2022-12-25T15:29:44.538Z,100296.50
2022-12-25T15:32:21.746Z,100280.91
2022-12-25T15:34:49.773Z,100286.91
2022-12-25T15:37:17.986Z,100286.94
2022-12-25T15:39:45.416Z,100285.28
2022-12-25T15:42:23.226Z,100273.09
2022-12-25T15:44:50.028Z,100282.50
2022-12-25T15:47:19.988Z,100296.47
2022-12-25T15:49:46.687Z,100292.13
2022-12-25T15:52:15.740Z,100289.34
2022-12-25T15:54:43.016Z,100287.66
2022-12-25T15:57:17.973Z,100286.03
2022-12-25T15:59:44.654Z,100287.78
2022-12-25T16:02:16.933Z,100287.75
2022-12-25T16:04:47.684Z,100272.94
2022-12-25T16:07:19.731Z,100272.25
2022-12-25T16:09:49.897Z,100274.88
2022-12-25T16:12:34.423Z,100278.28
2022-12-25T16:15:03.342Z,100267.72
2022-12-25T16:17:30.574Z,100264.28
2022-12-25T16:19:57.207Z,100257.44
2022-12-25T16:22:28.428Z,100257.56
2022-12-25T16:24:57.488Z,100247.09
2022-12-25T16:27:33.520Z,100252.34
2022-12-25T16:30:00.926Z,100248.94
2022-12-25T16:32:30.183Z,100243.75
2022-12-25T16:34:59.953Z,100241.94
2022-12-25T16:37:28.081Z,100236.66
2022-12-25T16:39:57.128Z,100238.34
2022-12-25T16:42:28.564Z,100239.31
2022-12-25T16:44:56.810Z,100241.88
2022-12-25T16:47:27.515Z,100232.34
2022-12-25T16:50:20.220Z,100229.75
2022-12-25T16:52:46.758Z,100231.44
2022-12-25T16:55:13.516Z,100232.19
2022-12-25T16:57:40.149Z,100233.28
2022-12-25T17:00:08.961Z,100235.88
2022-12-25T17:02:37.901Z,100230.66
2022-12-25T17:05:05.651Z,100228.84
2022-12-25T17:07:37.622Z,100230.63
2022-12-25T17:10:06.533Z,100220.16
2022-12-25T17:12:34.300Z,100229.75
2022-12-25T17:15:02.008Z,100225.47
2022-12-25T17:17:28.845Z,100222.84
2022-12-25T17:19:55.394Z,100225.47
2022-12-25T17:22:24.734Z,100222.88
2022-12-25T17:25:13.342Z,100219.31
2022-12-25T17:27:40.220Z,100221.13
2022-12-25T17:30:07.563Z,100215.94
2022-12-25T17:32:34.405Z,100208.91
2022-12-25T17:35:05.069Z,100204.66
2022-12-25T17:37:33.895Z,100202.97
2022-12-25T17:40:00.825Z,100202.91
2022-12-25T17:42:28.119Z,100191.69
2022-12-25T17:44:54.802Z,100168.19
2022-12-25T17:47:21.464Z,100184.72
2022-12-25T17:49:47.988Z,100167.22
2022-12-25T17:52:14.621Z,100172.56
2022-12-25T17:54:41.417Z,100166.44
2022-12-25T17:57:07.989Z,100176.88
2022-12-25T17:59:38.698Z,100186.31
2022-12-25T18:02:06.021Z,100188.06
2022-12-25T18:04:33.104Z,100198.53
2022-12-25T18:06:59.692Z,100190.63
2022-12-25T18:09:27.024Z,100189.81
2022-12-25T18:11:54.181Z,100180.34
2022-12-25T18:14:21.207Z,100194.06
2022-12-25T18:16:54.062Z,100196.81
2022-12-25T18:19:27.650Z,100200.28
2022-12-25T18:21:56.076Z,100202.88
2022-12-25T18:24:24.762Z,100201.13
2022-12-25T18:26:53.790Z,100188.13
2022-12-25T18:29:20.416Z,100183.78
2022-12-25T18:31:47.850Z,100200.28
2022-12-25T18:34:16.310Z,100193.34
2022-12-25T18:36:46.439Z,100188.13
2022-12-25T18:39:13.271Z,100189.91
2022-12-25T18:41:59.932Z,100183.78
2022-12-25T18:44:26.532Z,100191.69
2022-12-25T18:46:53.144Z,100183.91
2022-12-25T18:49:19.832Z,100185.63
2022-12-25T18:51:49.159Z,100181.28
2022-12-25T18:54:15.773Z,100179.50
2022-12-25T18:56:42.415Z,100174.31
2022-12-25T18:59:09.318Z,100176.94
2022-12-25T19:01:42.425Z,100173.47
2022-12-25T19:04:12.745Z,100185.59
2022-12-25T19:06:42.397Z,100180.41
2022-12-25T19:09:12.319Z,100178.66
2022-12-25T19:11:46.169Z,100176.06
2022-12-25T19:14:13.257Z,100179.47
2022-12-25T19:16:40.078Z,100176.09
2022-12-25T19:19:06.705Z,100181.25
2022-12-25T19:21:35.022Z,100172.63
2022-12-25T19:24:02.531Z,100175.22
2022-12-25T19:26:32.866Z,100160.41
2022-12-25T19:29:02.517Z,100162.19
2022-12-25T19:31:29.416Z,100162.19
2022-12-25T19:33:56.033Z,100162.16
2022-12-25T19:36:22.614Z,100169.06
2022-12-25T19:38:52.228Z,100172.53
2022-12-25T19:41:19.564Z,100176.00
2022-12-25T19:43:48.660Z,100177.81
2022-12-25T19:46:35.689Z,100166.47
2022-12-25T19:49:05.050Z,100179.53
2022-12-25T19:51:37.482Z,100175.16
2022-12-25T19:54:06.457Z,100178.63
2022-12-25T19:56:34.584Z,100169.94
2022-12-25T19:59:01.308Z,100161.31
2022-12-25T20:01:29.282Z,100183.97
2022-12-25T20:03:57.310Z,100192.59
2022-12-25T20:06:27.730Z,100155.25
2022-12-25T20:09:00.057Z,100171.72
2022-12-25T20:11:29.912Z,100176.13
2022-12-25T20:14:05.846Z,100183.03
2022-12-25T20:16:35.699Z,100179.53
2022-12-25T20:19:02.712Z,100180.47
2022-12-25T20:21:29.939Z,100192.72
2022-12-25T20:23:57.745Z,100192.72
2022-12-25T20:26:27.321Z,100196.22
2022-12-25T20:28:54.058Z,100193.59
2022-12-25T20:31:27.388Z,100197.88
2022-12-25T20:33:56.004Z,100197.09
2022-12-25T20:36:23.354Z,100192.78
2022-12-25T20:38:49.924Z,100198.00
2022-12-25T20:41:28.319Z,100185.00
2022-12-25T20:43:56.709Z,100203.22
2022-12-25T20:46:24.111Z,100205.81
2022-12-25T20:48:51.895Z,100193.72
2022-12-25T20:51:23.895Z,100198.00
2022-12-25T20:53:51.514Z,100203.22
2022-12-25T20:56:20.939Z,100194.59
2022-12-25T20:58:47.999Z,100201.53
2022-12-25T21:01:17.919Z,100199.81
2022-12-25T21:03:45.413Z,100209.34
2022-12-25T21:06:12.424Z,100210.25
2022-12-25T21:08:41.921Z,100210.25
2022-12-25T21:11:13.020Z,100221.53
2022-12-25T21:13:45.231Z,100212.00
2022-12-25T21:16:18.576Z,100199.00
2022-12-25T21:18:59.966Z,100197.16
2022-12-25T21:21:28.184Z,100196.34
2022-12-25T21:23:59.170Z,100212.94
2022-12-25T21:26:28.707Z,100205.19
2022-12-25T21:28:57.343Z,100206.91
2022-12-25T21:31:24.731Z,100211.25
2022-12-25T21:33:52.603Z,100210.28
2022-12-25T21:36:30.620Z,100211.25
2022-12-25T21:38:59.190Z,100219.81
2022-12-25T21:41:28.191Z,100211.19
2022-12-25T21:43:55.804Z,100210.38
2022-12-25T21:46:22.863Z,100216.31
2022-12-25T21:48:49.973Z,100204.25
2022-12-25T21:51:41.235Z,100207.69
2022-12-25T21:54:15.160Z,100202.53
2022-12-25T21:56:45.372Z,100199.97
2022-12-25T21:59:16.437Z,100200.81
2022-12-25T22:01:44.000Z,100186.91
2022-12-25T22:04:11.943Z,100213.81
2022-12-25T22:06:57.148Z,100221.53
2022-12-25T22:09:24.032Z,100222.53
2022-12-25T22:12:09.113Z,100225.03
2022-12-25T22:14:54.845Z,100222.38
2022-12-25T22:17:50.697Z,100224.25
2022-12-25T22:20:20.256Z,100232.06
2022-12-25T22:22:47.325Z,100240.66
2022-12-25T22:25:14.546Z,100241.50
2022-12-25T22:27:42.964Z,100226.84
2022-12-25T22:30:13.476Z,100223.38
2022-12-25T22:32:43.485Z,100207.78
2022-12-25T22:35:12.291Z,100213.88
2022-12-25T22:37:42.870Z,100239.00
2022-12-25T22:40:13.095Z,100244.19
2022-12-25T22:42:41.035Z,100237.31
2022-12-25T22:45:14.185Z,100241.53
2022-12-25T22:47:41.255Z,100232.94
2022-12-25T22:50:08.341Z,100243.34
2022-12-25T22:52:35.031Z,100253.78
2022-12-25T22:55:02.400Z,100253.75
2022-12-25T22:57:38.375Z,100252.88
2022-12-25T23:00:13.309Z,100247.69
2022-12-25T23:02:40.179Z,100257.25
2022-12-25T23:05:07.347Z,100252.91
2022-12-25T23:07:34.002Z,100255.47
2022-12-25T23:10:00.555Z,100232.97
2022-12-25T23:12:45.837Z,100247.72
2022-12-25T23:15:12.525Z,100249.44
2022-12-25T23:17:58.837Z,100252.06
2022-12-25T23:20:44.549Z,100252.91
2022-12-25T23:23:33.698Z,100258.97
2022-12-25T23:26:12.359Z,100246.81
2022-12-25T23:29:00.145Z,100247.72
2022-12-25T23:31:30.450Z,100244.19
2022-12-25T23:33:57.404Z,100238.97
2022-12-25T23:36:24.607Z,100249.44
2022-12-25T23:38:51.261Z,100242.31
2022-12-25T23:41:46.292Z,100245.84
2022-12-25T23:44:14.536Z,100252.78
2022-12-25T23:46:52.541Z,100248.59
2022-12-25T23:49:27.218Z,100244.19
2022-12-25T23:51:56.664Z,100243.25
2022-12-25T23:54:28.377Z,100250.16
2022-12-25T23:56:57.496Z,100258.91
2022-12-25T23:59:29.705Z,100252.00
